Terminal Aerodrome Forecast
Issued by NWS

Home | Current Version | Previous Version | Text Only | Print | Product List | Glossary On
Versions: 1 2 3 4 5 6 7 8 9 10 11 12 13 14 15 16
923
FTUS42 TJSJ 050525
TAFISX
TAF
TISX 050525Z 0506/0606 07008KT P6SM VCSH SCT020 BKN030
     FM051300 12013KT P6SM FEW020 SCT030
     FM052230 09006KT P6SM FEW025=

USA.gov is the U.S. government's official web portal to all federal, state and local government web resources and services.